Time;durP1;ratioP1;P1;durP2;ratioP2;P2;SDS_P1;SDS_P2;PMS_P1;PMS_P2;Temp;Humidity;BMP_temperature;BMP_pressure;BME280_temperature;BME280_humidity;BME280_pressure;Samples;Min_cycle;Max_cycle;Signal;HPM_P1;HPM_P2
2024/02/06 00:00:59;;;;;;;1.23;0.80;;;;;;;9.23;100.00;100299.06;5079656;28;20059;-76
2024/02/06 00:03:25;;;;;;;5.43;0.80;;;;;;;9.24;100.00;100300.72;5079863;28;20024;-75
2024/02/06 00:05:50;;;;;;;0.50;0.50;;;;;;;9.26;100.00;100305.88;5079551;28;20471;-75
2024/02/06 00:08:16;;;;;;;0.63;0.63;;;;;;;9.25;100.00;100301.53;5079467;28;20084;-76
2024/02/06 00:10:42;;;;;;;1.15;0.65;;;;;;;9.23;100.00;100299.06;5079395;28;20039;-75
2024/02/06 00:13:08;;;;;;;2.30;0.73;;;;;;;9.24;100.00;100289.97;5096201;28;20533;-75
2024/02/06 00:15:34;;;;;;;0.93;0.75;;;;;;;9.23;100.00;100293.69;5079414;28;20031;-75
2024/02/06 00:17:59;;;;;;;0.77;0.65;;;;;;;9.22;100.00;100283.97;5079187;28;20082;-75
2024/02/06 00:20:25;;;;;;;2.85;0.73;;;;;;;9.22;100.00;100294.69;5079484;28;20032;-75
2024/02/06 00:22:51;;;;;;;1.65;0.90;;;;;;;9.23;100.00;100292.84;5078999;28;20072;-75
2024/02/06 00:25:16;;;;;;;1.25;1.00;;;;;;;9.21;100.00;100290.34;5079863;28;20104;-75
2024/02/06 00:27:42;;;;;;;3.10;0.95;;;;;;;9.20;100.00;100288.66;5079148;28;20361;-76
2024/02/06 00:30:08;;;;;;;5.43;1.05;;;;;;;9.14;100.00;100289.38;5096100;28;20518;-76
2024/02/06 00:32:33;;;;;;;1.95;1.80;;;;;;;9.12;100.00;100286.03;5079226;28;20502;-75
2024/02/06 00:35:00;;;;;;;4.32;1.20;;;;;;;9.11;100.00;100297.78;5079252;28;20046;-75
2024/02/06 00:37:26;;;;;;;5.93;1.73;;;;;;;9.11;100.00;100283.56;5112304;28;20027;-75
2024/02/06 00:39:52;;;;;;;6.53;1.63;;;;;;;9.12;100.00;100280.66;5079281;28;20126;-75
2024/02/06 00:42:18;;;;;;;4.45;1.25;;;;;;;9.16;100.00;100287.38;5078796;28;20115;-76
2024/02/06 00:44:44;;;;;;;1.65;0.95;;;;;;;9.18;100.00;100274.63;5079061;28;20387;-75
2024/02/06 00:47:09;;;;;;;2.65;1.15;;;;;;;9.19;100.00;100273.59;5079098;28;20040;-76
2024/02/06 00:49:36;;;;;;;5.47;2.22;;;;;;;9.21;100.00;100278.78;5095909;28;20031;-76
2024/02/06 00:52:02;;;;;;;7.90;1.42;;;;;;;9.23;100.00;100279.41;5112875;28;20114;-76
2024/02/06 00:54:28;;;;;;;7.60;1.95;;;;;;;9.24;100.00;100267.69;5081832;28;20058;-76
2024/02/06 00:56:53;;;;;;;9.23;2.20;;;;;;;9.26;100.00;100262.97;5083089;28;20036;-76
2024/02/06 00:59:19;;;;;;;3.90;1.38;;;;;;;9.28;100.00;100268.16;5083332;28;20043;-78
2024/02/06 01:01:47;;;;;;;10.55;2.50;;;;;;;9.31;100.00;100268.63;5099633;28;20031;-75
2024/02/06 01:04:13;;;;;;;6.10;1.95;;;;;;;9.34;100.00;100262.06;5099967;28;20471;-76
2024/02/06 01:06:38;;;;;;;9.23;2.50;;;;;;;9.40;100.00;100256.00;5083063;28;20051;-75
2024/02/06 01:09:04;;;;;;;7.70;2.15;;;;;;;9.43;100.00;100244.91;5082865;28;20552;-76
2024/02/06 01:11:30;;;;;;;12.30;3.00;;;;;;;9.43;100.00;100248.41;5082701;28;20044;-76
2024/02/06 01:13:56;;;;;;;6.65;2.05;;;;;;;9.46;100.00;100239.16;5082646;28;20031;-75
2024/02/06 01:16:21;;;;;;;12.63;2.85;;;;;;;9.49;100.00;100243.34;5082783;28;20379;-76
2024/02/06 01:18:47;;;;;;;10.30;3.08;;;;;;;9.52;100.00;100224.19;5082550;28;20040;-76
2024/02/06 01:21:13;;;;;;;4.82;1.63;;;;;;;9.55;100.00;100230.03;5082487;28;20364;-76
2024/02/06 01:23:38;;;;;;;5.78;2.65;;;;;;;9.61;100.00;100220.44;5099005;28;20084;-76
2024/02/06 01:26:04;;;;;;;9.30;3.15;;;;;;;9.75;100.00;100213.41;5082582;28;20043;-76
2024/02/06 01:28:30;;;;;;;22.83;4.90;;;;;;;9.78;100.00;100205.78;5099463;28;20043;-76
2024/02/06 01:30:56;;;;;;;7.82;2.58;;;;;;;9.84;100.00;100201.53;5081978;28;20035;-76
2024/02/06 01:33:22;;;;;;;11.85;2.92;;;;;;;9.87;100.00;100199.34;5099423;28;20036;-76
2024/02/06 01:35:48;;;;;;;11.68;2.80;;;;;;;9.95;100.00;100198.41;5082453;28;20034;-75
2024/02/06 01:38:15;;;;;;;13.35;3.05;;;;;;;9.96;100.00;100175.06;5115897;28;20035;-76
2024/02/06 01:40:42;;;;;;;11.20;3.05;;;;;;;9.96;100.00;100183.13;5082579;28;20023;-76
2024/02/06 01:43:07;;;;;;;18.23;3.55;;;;;;;9.99;100.00;100163.94;5098782;28;20036;-75
2024/02/06 01:45:33;;;;;;;10.60;2.85;;;;;;;10.07;100.00;100172.72;5099108;28;20036;-76
2024/02/06 01:47:59;;;;;;;9.50;2.60;;;;;;;10.08;100.00;100184.31;5082195;28;20040;-76
2024/02/06 01:50:25;;;;;;;7.57;1.90;;;;;;;10.12;100.00;100175.69;5115549;28;20387;-76
2024/02/06 01:52:51;;;;;;;13.73;2.60;;;;;;;10.12;100.00;100174.88;5082334;28;20036;-76
2024/02/06 01:55:18;;;;;;;12.98;2.55;;;;;;;10.07;100.00;100161.16;5098702;28;20054;-76
2024/02/06 01:57:45;;;;;;;10.52;2.80;;;;;;;10.07;100.00;100164.69;5081679;28;20035;-76
2024/02/06 02:00:11;;;;;;;7.07;1.42;;;;;;;10.07;100.00;100140.50;5098761;28;20031;-76
2024/02/06 02:02:37;;;;;;;6.88;2.83;;;;;;;10.08;100.00;100146.69;5081706;28;20019;-76
2024/02/06 02:05:06;;;;;;;4.22;2.10;;;;;;;10.08;100.00;100144.88;5115573;28;20039;-76
2024/02/06 02:07:34;;;;;;;18.88;3.30;;;;;;;10.07;100.00;100140.50;5099034;28;20091;-76
2024/02/06 02:10:00;;;;;;;4.57;2.25;;;;;;;10.07;100.00;100142.38;5098609;28;20028;-76
2024/02/06 02:12:26;;;;;;;7.40;1.55;;;;;;;10.06;100.00;100129.97;5081620;28;20038;-76
2024/02/06 02:14:51;;;;;;;3.70;1.77;;;;;;;10.04;100.00;100121.25;5097987;28;20034;-76
2024/02/06 02:17:17;;;;;;;9.55;2.63;;;;;;;10.03;100.00;100133.84;5081649;28;20036;-76
2024/02/06 02:19:43;;;;;;;15.52;2.97;;;;;;;10.03;100.00;100117.75;5081574;28;20491;-76
2024/02/06 02:22:09;;;;;;;11.23;2.80;;;;;;;10.02;100.00;100108.00;5081534;28;20054;-76
2024/02/06 02:24:36;;;;;;;4.45;1.88;;;;;;;9.97;100.00;100105.03;5081200;28;20399;-76
2024/02/06 02:27:02;;;;;;;12.20;3.20;;;;;;;9.94;100.00;100104.59;5081705;28;20035;-76
2024/02/06 02:29:30;;;;;;;10.82;2.60;;;;;;;9.90;100.00;100107.66;5081530;28;20112;-76
2024/02/06 02:31:55;;;;;;;9.02;3.08;;;;;;;9.88;100.00;100098.94;5081604;28;20093;-76
2024/02/06 02:34:21;;;;;;;8.70;2.30;;;;;;;9.82;100.00;100088.16;5081349;28;20031;-76
2024/02/06 02:36:47;;;;;;;12.50;3.15;;;;;;;9.69;100.00;100083.44;5081322;28;20118;-76
2024/02/06 02:39:14;;;;;;;5.38;1.33;;;;;;;9.61;100.00;100075.47;5080873;28;20127;-77
2024/02/06 02:41:40;;;;;;;7.97;2.53;;;;;;;9.61;100.00;100073.63;5097702;28;20378;-76
2024/02/06 02:44:06;;;;;;;9.07;2.72;;;;;;;9.75;100.00;100068.41;5097929;28;20107;-76
2024/02/06 02:46:32;;;;;;;11.70;3.35;;;;;;;9.84;100.00;100076.19;5114768;28;20032;-77
2024/02/06 02:48:58;;;;;;;10.02;2.97;;;;;;;9.96;100.00;100070.34;5097427;28;20391;-76
2024/02/06 02:51:23;;;;;;;22.30;4.60;;;;;;;10.02;100.00;100066.88;5081160;28;20076;-76
2024/02/06 02:53:49;;;;;;;10.35;3.15;;;;;;;10.04;100.00;100068.34;5080959;28;20115;-76
2024/02/06 02:56:16;;;;;;;12.98;3.15;;;;;;;10.08;100.00;100066.97;5080658;28;20027;-76
2024/02/06 02:58:42;;;;;;;11.88;2.28;;;;;;;10.06;100.00;100058.25;5064108;28;20035;-76
2024/02/06 03:01:08;;;;;;;10.15;2.72;;;;;;;10.02;100.00;100061.50;5080812;28;20035;-76
2024/02/06 03:03:33;;;;;;;14.20;3.00;;;;;;;9.88;100.00;100068.59;5080456;28;20032;-76
2024/02/06 03:05:59;;;;;;;9.35;2.83;;;;;;;9.76;100.00;100067.38;5080894;28;20027;-76
2024/02/06 03:08:25;;;;;;;10.05;2.55;;;;;;;9.63;100.00;100060.00;5079925;28;20027;-76
2024/02/06 03:10:50;;;;;;;13.32;3.05;;;;;;;9.51;100.00;100054.28;5080726;28;20054;-76
2024/02/06 03:13:18;;;;;;;10.35;2.45;;;;;;;9.43;100.00;100032.91;5080469;28;20473;-76
2024/02/06 03:15:45;;;;;;;18.58;3.55;;;;;;;9.43;100.00;100040.97;5097020;28;20131;-76
2024/02/06 03:18:11;;;;;;;12.95;3.80;;;;;;;9.43;100.00;100038.28;5080351;28;20078;-76
2024/02/06 03:20:36;;;;;;;11.80;3.05;;;;;;;9.45;100.00;100029.03;5080389;28;20468;-76
2024/02/06 03:23:02;;;;;;;13.43;3.75;;;;;;;9.47;100.00;100042.25;5080052;28;20028;-76
2024/02/06 03:25:28;;;;;;;11.35;2.85;;;;;;;9.49;100.00;100025.97;5097183;28;20032;-76
2024/02/06 03:27:54;;;;;;;9.82;2.20;;;;;;;9.51;100.00;100016.72;5079953;28;20043;-76
2024/02/06 03:30:20;;;;;;;13.55;3.40;;;;;;;9.53;100.00;100020.03;5113379;28;20482;-76
2024/02/06 03:32:47;;;;;;;7.97;2.80;;;;;;;9.59;100.00;99997.81;5080162;28;20027;-76
2024/02/06 03:35:12;;;;;;;8.48;2.90;;;;;;;9.68;100.00;100012.81;5080399;28;20118;-76
2024/02/06 03:37:38;;;;;;;17.83;3.10;;;;;;;9.75;100.00;100017.41;5080004;28;20126;-76
2024/02/06 03:40:06;;;;;;;14.73;3.20;;;;;;;9.73;100.00;100014.09;5080260;28;20036;-76
2024/02/06 03:42:32;;;;;;;19.67;4.25;;;;;;;9.72;100.00;100007.88;5096489;28;20027;-76
2024/02/06 03:44:58;;;;;;;13.85;3.33;;;;;;;9.73;100.00;100008.72;5079955;28;20433;-76
2024/02/06 03:47:24;;;;;;;9.02;3.10;;;;;;;9.75;100.00;100004.81;5096807;28;20046;-76
2024/02/06 03:49:50;;;;;;;11.32;2.72;;;;;;;9.78;100.00;100007.13;5079796;28;20031;-76
2024/02/06 03:52:15;;;;;;;22.15;3.65;;;;;;;9.81;100.00;100005.91;5079938;28;20130;-76
2024/02/06 03:54:41;;;;;;;14.05;3.88;;;;;;;9.84;100.00;99997.47;5079673;28;20031;-76
2024/02/06 03:57:07;;;;;;;19.70;3.22;;;;;;;9.84;100.00;99992.97;5079191;28;20429;-77
2024/02/06 03:59:32;;;;;;;6.40;2.17;;;;;;;9.83;100.00;99977.03;5113298;28;20038;-76
2024/02/06 04:01:58;;;;;;;10.80;3.33;;;;;;;9.82;100.00;99978.88;5079564;28;20035;-76
2024/02/06 04:04:24;;;;;;;17.55;3.28;;;;;;;9.82;100.00;99980.75;5079499;28;20529;-76
2024/02/06 04:06:49;;;;;;;8.68;2.15;;;;;;;9.81;100.00;99968.31;5096494;28;20072;-76
2024/02/06 04:09:15;;;;;;;10.52;3.38;;;;;;;9.82;100.00;99970.84;5079239;28;20180;-76
2024/02/06 04:11:41;;;;;;;10.05;3.13;;;;;;;9.80;100.00;99942.50;5079301;28;20034;-76
2024/02/06 04:14:07;;;;;;;12.45;3.80;;;;;;;9.84;100.00;99970.63;5079298;28;20130;-76
2024/02/06 04:16:33;;;;;;;9.82;3.10;;;;;;;9.89;100.00;99977.09;5112826;28;20038;-75
2024/02/06 04:18:59;;;;;;;10.77;2.80;;;;;;;9.95;100.00;99977.34;5079558;28;20035;-75
2024/02/06 04:21:25;;;;;;;15.25;4.63;;;;;;;9.94;100.00;99979.19;5112699;28;20027;-77
2024/02/06 04:23:51;;;;;;;4.65;2.47;;;;;;;9.93;100.00;99990.97;5079294;28;20051;-75
2024/02/06 04:26:17;;;;;;;4.57;2.25;;;;;;;9.94;100.00;99986.44;5079306;28;20067;-76
2024/02/06 04:28:43;;;;;;;11.15;2.83;;;;;;;10.00;100.00;99972.22;5078405;28;20040;-76
2024/02/06 04:31:08;;;;;;;5.00;1.42;;;;;;;10.01;100.00;99969.38;5079191;28;20038;-76
2024/02/06 04:33:34;;;;;;;3.95;1.67;;;;;;;10.01;100.00;99965.84;5079404;28;20036;-75
2024/02/06 04:36:00;;;;;;;6.93;2.45;;;;;;;10.04;100.00;99966.28;5079154;28;20548;-75
2024/02/06 04:38:26;;;;;;;6.38;2.17;;;;;;;10.06;100.00;99964.25;5079200;28;20441;-76
2024/02/06 04:40:51;;;;;;;4.28;2.92;;;;;;;10.07;100.00;99968.59;5112324;28;20027;-76
2024/02/06 04:43:17;;;;;;;3.08;1.48;;;;;;;10.07;100.00;99960.53;5078842;28;20036;-76
2024/02/06 04:45:43;;;;;;;2.67;1.25;;;;;;;10.07;100.00;99968.59;5096007;28;20039;-75
2024/02/06 04:48:08;;;;;;;0.60;0.60;;;;;;;10.08;100.00;99956.84;5079129;28;20028;-76
2024/02/06 04:50:35;;;;;;;4.97;1.58;;;;;;;10.09;100.00;99950.44;5112567;28;20023;-76
2024/02/06 04:53:03;;;;;;;4.95;2.17;;;;;;;10.10;100.00;99954.78;5079119;28;20032;-76
2024/02/06 04:55:30;;;;;;;0.68;0.55;;;;;;;10.09;100.00;99955.81;5096334;28;20100;-76
2024/02/06 04:57:58;;;;;;;2.28;1.67;;;;;;;10.08;100.00;99959.53;5095378;28;20042;-76
2024/02/06 05:00:24;;;;;;;3.17;1.05;;;;;;;10.09;100.00;99965.72;5095147;28;20383;-76
2024/02/06 05:02:50;;;;;;;1.02;0.60;;;;;;;10.10;100.00;99962.00;5095385;28;20031;-75
2024/02/06 05:05:16;;;;;;;1.77;0.90;;;;;;;10.09;100.00;99961.19;5078960;28;20051;-75
2024/02/06 05:07:42;;;;;;;0.98;0.70;;;;;;;10.07;100.00;99947.09;5078922;28;20027;-75
2024/02/06 05:10:10;;;;;;;4.07;1.40;;;;;;;10.10;100.00;99949.41;5078548;28;20031;-76
2024/02/06 05:12:36;;;;;;;4.13;1.35;;;;;;;10.10;100.00;99953.94;5078966;28;20024;-76
2024/02/06 05:15:03;;;;;;;0.50;0.50;;;;;;;10.09;100.00;99953.13;5078043;28;20490;-75
2024/02/06 05:17:28;;;;;;;0.50;0.50;;;;;;;10.08;100.00;99945.25;5095509;28;20036;-77
2024/02/06 05:19:54;;;;;;;0.73;0.70;;;;;;;10.08;100.00;99943.41;5095457;28;20360;-76
2024/02/06 05:22:20;;;;;;;2.75;1.63;;;;;;;10.11;100.00;99947.56;5078287;28;20035;-76
2024/02/06 05:24:46;;;;;;;0.40;0.40;;;;;;;10.10;100.00;99938.66;5078646;28;20030;-76
2024/02/06 05:27:12;;;;;;;0.50;0.50;;;;;;;10.06;100.00;99945.44;5078694;28;20039;-76
2024/02/06 05:29:39;;;;;;;0.50;0.50;;;;;;;10.08;100.00;99939.88;5095498;28;20426;-76
2024/02/06 05:32:05;;;;;;;0.43;0.43;;;;;;;10.07;100.00;99939.03;5078423;28;20036;-76
2024/02/06 05:34:30;;;;;;;0.40;0.40;;;;;;;10.07;100.00;99936.38;5111925;28;20189;-77
2024/02/06 05:36:56;;;;;;;0.60;0.60;;;;;;;10.08;100.00;99931.81;5095605;28;20043;-76
2024/02/06 05:39:22;;;;;;;0.40;0.40;;;;;;;10.12;100.00;99939.31;5079516;28;20035;-76
2024/02/06 05:41:47;;;;;;;0.40;0.40;;;;;;;10.13;100.00;99940.97;5099305;28;20032;-76
2024/02/06 05:44:13;;;;;;;0.35;0.35;;;;;;;10.11;100.00;99934.97;5082226;28;20032;-76
2024/02/06 05:46:39;;;;;;;0.40;0.40;;;;;;;10.09;100.00;99938.88;5082252;28;20035;-76
2024/02/06 05:49:04;;;;;;;0.30;0.30;;;;;;;10.10;100.00;99941.34;5081995;28;20072;-76
2024/02/06 05:51:30;;;;;;;0.45;0.45;;;;;;;10.10;100.00;99937.84;5099095;28;20035;-76
2024/02/06 05:53:56;;;;;;;0.40;0.40;;;;;;;10.10;100.00;99916.34;5098025;28;20043;-76
2024/02/06 05:56:22;;;;;;;0.40;0.40;;;;;;;10.09;100.00;99918.19;5082384;28;20027;-76
2024/02/06 05:58:47;;;;;;;0.40;0.40;;;;;;;10.10;100.00;99938.66;5081767;28;20391;-76
2024/02/06 06:01:13;;;;;;;0.40;0.40;;;;;;;10.11;100.00;99936.81;5098706;28;20023;-76
2024/02/06 06:03:39;;;;;;;0.40;0.40;;;;;;;10.12;100.00;99935.78;5081899;28;20452;-76
2024/02/06 06:06:05;;;;;;;0.30;0.30;;;;;;;10.12;100.00;99933.09;5098201;28;20051;-76
2024/02/06 06:08:31;;;;;;;0.40;0.40;;;;;;;10.12;100.00;99949.22;5081891;28;20096;-76
2024/02/06 06:10:57;;;;;;;0.40;0.40;;;;;;;10.13;100.00;99945.50;5081914;28;20122;-76
2024/02/06 06:13:26;;;;;;;0.40;0.40;;;;;;;10.13;100.00;99932.91;5081592;28;20082;-76
2024/02/06 06:15:52;;;;;;;0.40;0.40;;;;;;;10.13;100.00;99935.63;5081817;28;20042;-76
2024/02/06 06:18:17;;;;;;;0.40;0.40;;;;;;;10.15;100.00;99938.09;5081670;28;20039;-76
2024/02/06 06:20:43;;;;;;;0.40;0.40;;;;;;;10.15;100.00;99915.78;5081817;28;20055;-76
2024/02/06 06:23:09;;;;;;;0.40;0.40;;;;;;;10.15;100.00;99910.41;5081137;28;20027;-76
2024/02/06 06:25:34;;;;;;;0.40;0.40;;;;;;;10.13;100.00;99900.69;5098220;28;20387;-76
2024/02/06 06:28:00;;;;;;;0.40;0.40;;;;;;;10.16;100.00;99898.63;5081561;28;20387;-76
2024/02/06 06:30:26;;;;;;;0.50;0.50;;;;;;;10.17;100.00;99895.75;5098420;28;20035;-76
2024/02/06 06:32:51;;;;;;;0.40;0.40;;;;;;;10.20;100.00;99903.41;5081540;28;20031;-76
2024/02/06 06:35:17;;;;;;;0.40;0.40;;;;;;;10.18;100.00;99889.34;5081579;28;20032;-76
2024/02/06 06:37:43;;;;;;;0.50;0.50;;;;;;;10.25;100.00;99887.53;5081442;28;20524;-76
2024/02/06 06:40:09;;;;;;;0.40;0.40;;;;;;;10.27;100.00;99887.38;5081392;28;20034;-76
2024/02/06 06:42:34;;;;;;;0.40;0.40;;;;;;;10.29;100.00;99878.13;5114438;28;20486;-76
2024/02/06 06:45:00;;;;;;;0.50;0.50;;;;;;;10.30;100.00;99887.00;5098124;28;20031;-76
2024/02/06 06:47:28;;;;;;;0.43;0.43;;;;;;;10.33;100.00;99881.22;5080965;28;20093;-77
2024/02/06 06:49:53;;;;;;;0.40;0.40;;;;;;;10.33;100.00;99881.22;5080842;28;20036;-76
2024/02/06 06:52:19;;;;;;;0.50;0.50;;;;;;;10.37;100.00;99870.91;5096949;28;20034;-76
2024/02/06 06:54:45;;;;;;;0.45;0.45;;;;;;;10.37;100.00;99876.28;5080956;28;20063;-77
2024/02/06 06:57:10;;;;;;;0.43;0.43;;;;;;;10.39;100.00;99866.19;5097663;28;20027;-76
2024/02/06 06:59:36;;;;;;;0.50;0.50;;;;;;;10.40;100.00;99859.75;5080909;28;20032;-76
2024/02/06 07:02:02;;;;;;;0.40;0.40;;;;;;;10.43;100.00;99873.66;5080804;28;20034;-76
2024/02/06 07:04:28;;;;;;;0.32;0.32;;;;;;;10.45;100.00;99876.97;5080898;28;20036;-76
2024/02/06 07:06:55;;;;;;;0.40;0.40;;;;;;;10.46;100.00;99878.63;5080881;28;20041;-76
2024/02/06 07:09:22;;;;;;;0.40;0.40;;;;;;;10.47;100.00;99866.84;5080687;28;20047;-76
2024/02/06 07:11:48;;;;;;;0.40;0.40;;;;;;;10.50;100.00;99869.13;5080251;28;20416;-77
2024/02/06 07:14:14;;;;;;;0.40;0.40;;;;;;;10.50;100.00;99871.81;5097582;28;20031;-76
2024/02/06 07:16:40;;;;;;;0.40;0.40;;;;;;;10.54;100.00;99870.41;5080492;28;20059;-76
2024/02/06 07:19:06;;;;;;;0.40;0.40;;;;;;;10.55;100.00;99873.94;5097189;28;20039;-76
2024/02/06 07:21:33;;;;;;;0.40;0.40;;;;;;;10.57;100.00;99867.31;5080027;28;20088;-77
2024/02/06 07:23:58;;;;;;;0.40;0.40;;;;;;;10.60;100.00;99865.28;5097157;28;20052;-76
2024/02/06 07:26:24;;;;;;;0.40;0.40;;;;;;;10.62;100.00;99872.13;5080375;28;20036;-77
2024/02/06 07:28:50;;;;;;;0.40;0.40;;;;;;;10.62;100.00;99858.66;5080131;28;20042;-76
2024/02/06 07:31:17;;;;;;;0.50;0.50;;;;;;;10.63;100.00;99864.88;5080164;28;20039;-76
2024/02/06 07:33:42;;;;;;;0.40;0.40;;;;;;;10.63;100.00;99863.00;5080223;28;20285;-76
2024/02/06 07:36:09;;;;;;;0.40;0.40;;;;;;;10.67;100.00;99868.84;5079990;28;20463;-76
2024/02/06 07:38:35;;;;;;;0.40;0.40;;;;;;;10.67;100.00;99853.53;5080361;28;20023;-76
2024/02/06 07:41:02;;;;;;;0.40;0.40;;;;;;;10.69;100.00;99864.06;5080056;28;20361;-76
2024/02/06 07:43:28;;;;;;;0.40;0.40;;;;;;;10.71;100.00;99864.72;5113400;28;20031;-76
2024/02/06 07:45:55;;;;;;;0.40;0.40;;;;;;;10.72;100.00;99852.94;5096853;28;20570;-76
2024/02/06 07:48:21;;;;;;;0.40;0.40;;;;;;;10.71;100.00;99854.78;5113616;28;20141;-76
2024/02/06 07:50:48;;;;;;;0.40;0.40;;;;;;;10.75;100.00;99852.53;5079549;28;20089;-76
2024/02/06 07:53:16;;;;;;;0.40;0.40;;;;;;;10.76;100.00;99851.50;5080089;28;20032;-76
2024/02/06 07:55:42;;;;;;;0.40;0.40;;;;;;;10.76;100.00;99844.25;5080293;28;20131;-76
2024/02/06 07:58:08;;;;;;;0.40;0.40;;;;;;;10.77;100.00;99835.19;5079823;28;20478;-76
2024/02/06 08:00:35;;;;;;;0.40;0.40;;;;;;;10.77;100.00;99834.34;5079338;28;20369;-76
2024/02/06 08:03:01;;;;;;;0.40;0.40;;;;;;;10.76;100.00;99832.69;5112979;28;20260;-76
2024/02/06 08:05:28;;;;;;;0.40;0.40;;;;;;;10.75;100.00;99831.84;5096561;28;20531;-77
2024/02/06 08:07:55;;;;;;;0.50;0.50;;;;;;;10.76;100.00;99822.75;5096129;28;20403;-76
2024/02/06 08:10:20;;;;;;;0.40;0.40;;;;;;;10.78;100.00;99825.25;5080226;28;20027;-76
2024/02/06 08:12:47;;;;;;;0.40;0.40;;;;;;;10.79;100.00;99827.72;5079668;28;20498;-76
2024/02/06 08:15:13;;;;;;;0.40;0.40;;;;;;;10.80;100.00;99823.19;5095962;28;20031;-77
2024/02/06 08:17:46;;;;;;;0.40;0.40;;;;;;;10.83;100.00;99816.59;5062754;28;20039;-76
2024/02/06 08:20:13;;;;;;;0.40;0.40;;;;;;;10.83;100.00;99821.97;5097072;28;20023;-76
2024/02/06 08:22:39;;;;;;;0.40;0.40;;;;;;;10.84;100.00;99827.13;5079206;28;20027;-76
2024/02/06 08:25:06;;;;;;;0.40;0.40;;;;;;;10.84;100.00;99823.63;5095789;28;20386;-76
2024/02/06 08:27:35;;;;;;;0.40;0.40;;;;;;;10.85;100.00;99823.44;5079454;28;20047;-76
2024/02/06 08:30:03;;;;;;;0.40;0.40;;;;;;;10.85;100.00;99820.75;5095813;28;20540;-76
2024/02/06 08:32:30;;;;;;;0.40;0.40;;;;;;;10.87;100.00;99823.22;5096578;28;20113;-76
2024/02/06 08:34:56;;;;;;;0.40;0.40;;;;;;;10.87;100.00;99818.66;5078981;28;20049;-77
2024/02/06 08:37:21;;;;;;;0.40;0.40;;;;;;;10.89;100.00;99821.97;5079143;28;20394;-76
2024/02/06 08:39:47;;;;;;;0.40;0.40;;;;;;;10.98;100.00;99819.94;5078585;28;20114;-77
2024/02/06 08:42:13;;;;;;;0.40;0.40;;;;;;;10.99;100.00;99817.06;5078820;28;20024;-77
2024/02/06 08:44:39;;;;;;;0.30;0.30;;;;;;;10.97;100.00;99823.66;5095511;28;20093;-76
2024/02/06 08:47:06;;;;;;;0.40;0.40;;;;;;;10.99;100.00;99827.00;5112539;28;20395;-76
2024/02/06 08:49:31;;;;;;;0.45;0.45;;;;;;;10.98;100.00;99820.78;5095466;28;20483;-77
2024/02/06 08:51:57;;;;;;;0.40;0.40;;;;;;;11.00;100.00;99825.94;5079241;28;20035;-76
2024/02/06 08:54:23;;;;;;;0.40;0.40;;;;;;;10.99;100.00;99822.44;5079034;28;20122;-76
2024/02/06 08:56:49;;;;;;;0.40;0.40;;;;;;;11.02;100.00;99840.03;5079119;28;20126;-76
2024/02/06 08:59:14;;;;;;;0.40;0.40;;;;;;;11.02;100.00;99820.38;5095327;28;20031;-75
2024/02/06 09:01:42;;;;;;;0.40;0.40;;;;;;;11.05;100.00;99826.19;5078683;28;20027;-75
2024/02/06 09:04:09;;;;;;;0.40;0.40;;;;;;;11.07;100.00;99840.25;5079083;28;20062;-75
2024/02/06 09:06:36;;;;;;;0.40;0.40;;;;;;;11.07;100.00;99837.56;5079242;28;20481;-75
2024/02/06 09:09:03;;;;;;;0.40;0.40;;;;;;;11.05;100.00;99857.63;5078896;28;20132;-75
2024/02/06 09:11:30;;;;;;;0.40;0.40;;;;;;;10.95;100.00;99879.50;5096018;28;20105;-75
2024/02/06 09:13:55;;;;;;;0.40;0.40;;;;;;;10.21;100.00;99869.31;5095390;28;20059;-76
2024/02/06 09:16:22;;;;;;;0.40;0.40;;;;;;;9.83;100.00;99870.44;5099769;28;20058;-75
2024/02/06 09:18:49;;;;;;;0.50;0.50;;;;;;;9.46;100.00;99874.22;5099372;28;20043;-74
2024/02/06 09:21:16;;;;;;;0.40;0.40;;;;;;;8.87;100.00;99877.03;5082584;28;20503;-75
2024/02/06 09:23:42;;;;;;;0.43;0.43;;;;;;;8.46;100.00;99877.47;5099926;28;20050;-75
2024/02/06 09:26:11;;;;;;;0.40;0.40;;;;;;;8.10;100.00;99887.00;5099143;28;20460;-75
2024/02/06 09:28:38;;;;;;;0.40;0.40;;;;;;;7.87;100.00;99883.53;5082344;28;20031;-75
2024/02/06 09:31:07;;;;;;;0.40;0.40;;;;;;;7.71;100.00;99892.50;5082550;28;20101;-75
2024/02/06 09:33:33;;;;;;;0.40;0.40;;;;;;;7.61;100.00;99905.28;5082493;28;20105;-74
2024/02/06 09:36:00;;;;;;;0.40;0.40;;;;;;;7.53;100.00;99908.03;5099418;28;20036;-74
2024/02/06 09:38:25;;;;;;;0.43;0.43;;;;;;;7.40;100.00;99909.41;5099374;28;20031;-74
2024/02/06 09:40:52;;;;;;;0.40;0.40;;;;;;;7.34;100.00;99907.47;5082472;28;20147;-73
2024/02/06 09:43:18;;;;;;;0.40;0.40;;;;;;;7.31;100.00;99913.16;5082731;28;20119;-73
2024/02/06 09:45:44;;;;;;;0.40;0.40;;;;;;;7.26;100.00;99912.84;5082430;28;20039;-73
2024/02/06 09:48:10;;;;;;;0.40;0.40;;;;;;;7.17;100.00;99911.22;5082379;28;20043;-73
2024/02/06 09:50:36;;;;;;;0.40;0.40;;;;;;;7.11;100.00;99907.41;5082272;28;20036;-73
2024/02/06 09:53:02;;;;;;;0.40;0.40;;;;;;;7.11;100.00;99917.25;5082293;28;20081;-73
2024/02/06 09:55:28;;;;;;;0.50;0.50;;;;;;;7.08;100.00;99923.78;5099297;28;20506;-73
2024/02/06 09:57:55;;;;;;;0.40;0.40;;;;;;;7.03;100.00;99918.97;5082836;28;20095;-73
2024/02/06 10:00:22;;;;;;;0.47;0.47;;;;;;;6.95;100.00;99919.00;5099040;28;20039;-73
2024/02/06 10:02:50;;;;;;;0.50;0.50;;;;;;;6.85;100.00;99914.84;5098775;28;20031;-73
2024/02/06 10:05:23;;;;;;;0.40;0.40;;;;;;;6.79;100.00;99927.91;5098914;28;20073;-73
2024/02/06 10:07:49;;;;;;;0.47;0.47;;;;;;;6.84;100.00;99938.06;5066177;28;20047;-73
2024/02/06 10:10:16;;;;;;;0.50;0.50;;;;;;;6.81;100.00;99931.25;5081991;28;20102;-73
2024/02/06 10:12:44;;;;;;;0.40;0.40;;;;;;;6.82;100.00;99932.91;5098849;28;20067;-74
2024/02/06 10:15:16;;;;;;;0.50;0.50;;;;;;;6.80;100.00;99929.59;5098795;28;20035;-73
2024/02/06 10:17:42;;;;;;;0.40;0.40;;;;;;;6.69;100.00;99935.28;5115429;28;20452;-74
2024/02/06 10:20:08;;;;;;;0.40;0.40;;;;;;;6.62;100.00;99938.81;5082751;28;20149;-74
2024/02/06 10:22:34;;;;;;;0.40;0.40;;;;;;;6.49;100.00;99926.81;5081589;28;20047;-74
2024/02/06 10:25:03;;;;;;;0.40;0.40;;;;;;;6.42;100.00;99943.69;5081418;28;20120;-75
2024/02/06 10:27:31;;;;;;;0.40;0.40;;;;;;;6.40;100.00;99949.19;5097403;28;20038;-74
2024/02/06 10:30:00;;;;;;;0.40;0.40;;;;;;;6.36;100.00;99942.53;5115308;28;20034;-74
2024/02/06 10:32:31;;;;;;;0.47;0.47;;;;;;;6.35;100.00;99948.84;5115256;28;20034;-74
2024/02/06 10:35:06;;;;;;;0.43;0.43;;;;;;;6.38;100.00;99956.53;5098153;28;20039;-74
2024/02/06 10:37:37;;;;;;;0.40;0.40;;;;;;;6.38;100.00;99949.38;5114868;28;20039;-74
2024/02/06 10:40:07;;;;;;;0.50;0.50;;;;;;;6.44;100.00;99955.88;5098548;28;20475;-75
2024/02/06 10:42:36;;;;;;;0.40;0.40;;;;;;;6.45;100.00;99964.69;5114688;28;20034;-74
2024/02/06 10:45:03;;;;;;;0.50;0.50;;;;;;;6.50;100.00;99965.84;5098139;28;20043;-74
2024/02/06 10:47:29;;;;;;;0.40;0.40;;;;;;;6.54;100.00;99961.84;5098121;28;20036;-74
2024/02/06 10:50:02;;;;;;;0.40;0.40;;;;;;;6.52;100.00;99974.53;5115215;28;20455;-74
2024/02/06 10:52:28;;;;;;;0.50;0.50;;;;;;;6.49;100.00;99969.53;5080285;28;20483;-74
2024/02/06 10:54:53;;;;;;;0.40;0.40;;;;;;;6.39;100.00;99972.38;5097956;28;20039;-73
2024/02/06 10:57:21;;;;;;;0.40;0.40;;;;;;;6.34;100.00;99981.91;5081025;28;20050;-73
2024/02/06 11:00:11;;;;;;;0.40;0.40;;;;;;;6.28;100.00;99978.06;5114708;28;20047;-73
2024/02/06 11:02:40;;;;;;;0.50;0.50;;;;;;;6.26;100.00;99969.38;5098233;28;20023;-73
2024/02/06 11:05:14;;;;;;;0.40;0.40;;;;;;;6.24;100.00;99967.88;5081824;28;20130;-73
2024/02/06 11:07:54;;;;;;;0.40;0.40;;;;;;;6.15;100.00;99957.22;5097668;28;20028;-74
2024/02/06 11:10:31;;;;;;;0.40;0.40;;;;;;;6.19;100.00;99963.03;5080802;28;20027;-73
2024/02/06 11:13:03;;;;;;;0.40;0.40;;;;;;;6.20;100.00;99967.38;5097641;28;20085;-73
2024/02/06 11:15:29;;;;;;;0.50;0.50;;;;;;;6.22;100.00;99972.53;5097680;28;20088;-73
2024/02/06 11:17:55;;;;;;;0.40;0.40;;;;;;;6.24;100.00;99962.53;5080806;28;20088;-73
2024/02/06 11:20:27;;;;;;;0.50;0.50;;;;;;;6.22;100.00;99957.38;5097076;28;20027;-73